sensor_id;sensor_type;location;lat;lon;timestamp;P1;durP1;ratioP1;P2;durP2;ratioP2
44366;SDS011;30086;57.660;12.000;2022-08-11T00:00:01;10.82;;;3.65;;
44366;SDS011;30086;57.660;12.000;2022-08-11T00:02:38;10.52;;;4.60;;
44366;SDS011;30086;57.660;12.000;2022-08-11T00:05:05;9.32;;;4.50;;
44366;SDS011;30086;57.660;12.000;2022-08-11T00:07:33;6.82;;;4.10;;
44366;SDS011;30086;57.660;12.000;2022-08-11T00:09:59;9.00;;;4.32;;
44366;SDS011;30086;57.660;12.000;2022-08-11T00:12:26;6.78;;;3.95;;
44366;SDS011;30086;57.660;12.000;2022-08-11T00:14:56;6.00;;;3.95;;
44366;SDS011;30086;57.660;12.000;2022-08-11T00:17:25;13.20;;;4.65;;
44366;SDS011;30086;57.660;12.000;2022-08-11T00:19:51;6.30;;;3.65;;
44366;SDS011;30086;57.660;12.000;2022-08-11T00:22:21;7.00;;;3.25;;
44366;SDS011;30086;57.660;12.000;2022-08-11T00:24:48;7.70;;;3.65;;
44366;SDS011;30086;57.660;12.000;2022-08-11T00:27:14;9.02;;;3.60;;
44366;SDS011;30086;57.660;12.000;2022-08-11T00:29:43;8.95;;;2.97;;
44366;SDS011;30086;57.660;12.000;2022-08-11T00:32:16;5.90;;;3.03;;
44366;SDS011;30086;57.660;12.000;2022-08-11T00:34:42;4.40;;;3.05;;
44366;SDS011;30086;57.660;12.000;2022-08-11T00:37:10;4.97;;;3.20;;
44366;SDS011;30086;57.660;12.000;2022-08-11T00:39:43;4.80;;;3.30;;
44366;SDS011;30086;57.660;12.000;2022-08-11T00:44:40;4.82;;;2.97;;
44366;SDS011;30086;57.660;12.000;2022-08-11T00:47:42;7.88;;;2.97;;
44366;SDS011;30086;57.660;12.000;2022-08-11T01:00:33;7.25;;;3.70;;
44366;SDS011;30086;57.660;12.000;2022-08-11T01:24:27;6.53;;;2.97;;
44366;SDS011;30086;57.660;12.000;2022-08-11T01:27:06;7.55;;;2.72;;
44366;SDS011;30086;57.660;12.000;2022-08-11T01:29:47;9.18;;;3.05;;
44366;SDS011;30086;57.660;12.000;2022-08-11T01:48:07;6.13;;;3.67;;
44366;SDS011;30086;57.660;12.000;2022-08-11T01:53:15;10.40;;;4.00;;
44366;SDS011;30086;57.660;12.000;2022-08-11T01:55:48;7.78;;;3.30;;
44366;SDS011;30086;57.660;12.000;2022-08-11T01:58:22;7.47;;;3.65;;
44366;SDS011;30086;57.660;12.000;2022-08-11T02:03:54;7.97;;;4.05;;
44366;SDS011;30086;57.660;12.000;2022-08-11T02:06:29;8.00;;;4.00;;
44366;SDS011;30086;57.660;12.000;2022-08-11T02:12:09;7.63;;;3.90;;
44366;SDS011;30086;57.660;12.000;2022-08-11T02:14:41;9.27;;;3.90;;
44366;SDS011;30086;57.660;12.000;2022-08-11T02:19:54;8.02;;;3.72;;
44366;SDS011;30086;57.660;12.000;2022-08-11T02:22:45;7.63;;;3.20;;
44366;SDS011;30086;57.660;12.000;2022-08-11T02:28:02;6.30;;;3.30;;
44366;SDS011;30086;57.660;12.000;2022-08-11T02:30:31;7.00;;;3.90;;
44366;SDS011;30086;57.660;12.000;2022-08-11T02:36:09;9.70;;;3.70;;
44366;SDS011;30086;57.660;12.000;2022-08-11T02:38:46;6.53;;;4.05;;
44366;SDS011;30086;57.660;12.000;2022-08-11T02:41:15;9.07;;;4.45;;
44366;SDS011;30086;57.660;12.000;2022-08-11T02:44:40;8.48;;;4.35;;
44366;SDS011;30086;57.660;12.000;2022-08-11T02:47:13;11.35;;;4.70;;
44366;SDS011;30086;57.660;12.000;2022-08-11T02:49:49;7.93;;;4.25;;
44366;SDS011;30086;57.660;12.000;2022-08-11T03:00:29;13.45;;;4.18;;
44366;SDS011;30086;57.660;12.000;2022-08-11T03:03:12;9.73;;;4.38;;
44366;SDS011;30086;57.660;12.000;2022-08-11T03:05:57;8.90;;;4.10;;
44366;SDS011;30086;57.660;12.000;2022-08-11T03:13:53;10.60;;;3.65;;
44366;SDS011;30086;57.660;12.000;2022-08-11T03:16:42;7.57;;;3.75;;
44366;SDS011;30086;57.660;12.000;2022-08-11T03:24:21;11.60;;;4.20;;
44366;SDS011;30086;57.660;12.000;2022-08-11T03:29:34;13.23;;;3.75;;
44366;SDS011;30086;57.660;12.000;2022-08-11T03:32:10;9.82;;;3.92;;
44366;SDS011;30086;57.660;12.000;2022-08-11T03:34:44;8.90;;;4.38;;
44366;SDS011;30086;57.660;12.000;2022-08-11T03:42:09;9.15;;;3.75;;
44366;SDS011;30086;57.660;12.000;2022-08-11T04:00:16;7.45;;;3.53;;
44366;SDS011;30086;57.660;12.000;2022-08-11T04:02:48;4.72;;;3.28;;
44366;SDS011;30086;57.660;12.000;2022-08-11T04:08:19;6.97;;;4.00;;
44366;SDS011;30086;57.660;12.000;2022-08-11T04:35:07;11.57;;;4.40;;
44366;SDS011;30086;57.660;12.000;2022-08-11T04:56:49;9.13;;;4.13;;
44366;SDS011;30086;57.660;12.000;2022-08-11T05:10:59;11.75;;;3.60;;
44366;SDS011;30086;57.660;12.000;2022-08-11T05:13:31;13.75;;;3.97;;
44366;SDS011;30086;57.660;12.000;2022-08-11T05:16:18;10.68;;;3.60;;
44366;SDS011;30086;57.660;12.000;2022-08-11T05:19:05;13.18;;;4.05;;
44366;SDS011;30086;57.660;12.000;2022-08-11T05:21:53;8.40;;;3.50;;
44366;SDS011;30086;57.660;12.000;2022-08-11T05:24:46;8.48;;;3.78;;
44366;SDS011;30086;57.660;12.000;2022-08-11T05:27:35;12.57;;;3.78;;
44366;SDS011;30086;57.660;12.000;2022-08-11T05:30:24;9.95;;;3.88;;
44366;SDS011;30086;57.660;12.000;2022-08-11T05:33:24;9.98;;;4.15;;
44366;SDS011;30086;57.660;12.000;2022-08-11T05:36:28;13.77;;;3.70;;
44366;SDS011;30086;57.660;12.000;2022-08-11T05:38:56;7.20;;;3.05;;
44366;SDS011;30086;57.660;12.000;2022-08-11T05:41:43;8.88;;;3.03;;
44366;SDS011;30086;57.660;12.000;2022-08-11T05:44:27;10.50;;;2.90;;
44366;SDS011;30086;57.660;12.000;2022-08-11T05:47:23;6.28;;;2.30;;
44366;SDS011;30086;57.660;12.000;2022-08-11T05:50:10;8.95;;;3.00;;
44366;SDS011;30086;57.660;12.000;2022-08-11T05:52:54;9.10;;;3.47;;
44366;SDS011;30086;57.660;12.000;2022-08-11T05:55:40;8.10;;;2.40;;
44366;SDS011;30086;57.660;12.000;2022-08-11T05:58:26;4.45;;;2.45;;
44366;SDS011;30086;57.660;12.000;2022-08-11T06:00:57;9.63;;;2.42;;
44366;SDS011;30086;57.660;12.000;2022-08-11T06:03:26;10.40;;;2.72;;
44366;SDS011;30086;57.660;12.000;2022-08-11T06:05:53;6.80;;;2.50;;
44366;SDS011;30086;57.660;12.000;2022-08-11T06:08:26;7.00;;;2.17;;
44366;SDS011;30086;57.660;12.000;2022-08-11T06:10:52;7.55;;;2.90;;
44366;SDS011;30086;57.660;12.000;2022-08-11T06:13:24;5.43;;;2.10;;
44366;SDS011;30086;57.660;12.000;2022-08-11T06:15:50;7.85;;;2.33;;
44366;SDS011;30086;57.660;12.000;2022-08-11T06:18:17;11.48;;;3.10;;
44366;SDS011;30086;57.660;12.000;2022-08-11T06:20:47;10.07;;;2.50;;
44366;SDS011;30086;57.660;12.000;2022-08-11T06:23:14;10.15;;;2.90;;
44366;SDS011;30086;57.660;12.000;2022-08-11T06:25:42;3.65;;;2.63;;
44366;SDS011;30086;57.660;12.000;2022-08-11T06:28:08;5.82;;;2.15;;
44366;SDS011;30086;57.660;12.000;2022-08-11T06:33:03;4.10;;;2.22;;
44366;SDS011;30086;57.660;12.000;2022-08-11T06:35:38;4.72;;;2.08;;
44366;SDS011;30086;57.660;12.000;2022-08-11T06:40:55;4.80;;;2.00;;
44366;SDS011;30086;57.660;12.000;2022-08-11T06:46:33;4.90;;;2.20;;
44366;SDS011;30086;57.660;12.000;2022-08-11T06:49:13;5.68;;;2.35;;
44366;SDS011;30086;57.660;12.000;2022-08-11T06:52:10;7.20;;;2.45;;
44366;SDS011;30086;57.660;12.000;2022-08-11T06:54:51;5.20;;;2.20;;
44366;SDS011;30086;57.660;12.000;2022-08-11T07:00:07;4.85;;;2.53;;
44366;SDS011;30086;57.660;12.000;2022-08-11T07:03:09;6.22;;;2.15;;
44366;SDS011;30086;57.660;12.000;2022-08-11T07:11:29;5.05;;;2.17;;
44366;SDS011;30086;57.660;12.000;2022-08-11T07:14:16;8.73;;;2.45;;
44366;SDS011;30086;57.660;12.000;2022-08-11T07:17:03;4.72;;;2.22;;
44366;SDS011;30086;57.660;12.000;2022-08-11T07:19:32;3.75;;;2.20;;
44366;SDS011;30086;57.660;12.000;2022-08-11T07:22:17;6.30;;;2.40;;
44366;SDS011;30086;57.660;12.000;2022-08-11T07:25:08;6.38;;;2.42;;
44366;SDS011;30086;57.660;12.000;2022-08-11T07:28:02;7.38;;;2.15;;
44366;SDS011;30086;57.660;12.000;2022-08-11T07:30:47;4.10;;;2.10;;
44366;SDS011;30086;57.660;12.000;2022-08-11T07:33:21;6.82;;;2.40;;
44366;SDS011;30086;57.660;12.000;2022-08-11T07:35:51;3.17;;;1.75;;
44366;SDS011;30086;57.660;12.000;2022-08-11T07:38:26;6.82;;;2.58;;
44366;SDS011;30086;57.660;12.000;2022-08-11T07:41:11;7.38;;;2.00;;
44366;SDS011;30086;57.660;12.000;2022-08-11T07:43:38;5.82;;;2.58;;
44366;SDS011;30086;57.660;12.000;2022-08-11T07:46:05;4.20;;;1.90;;
44366;SDS011;30086;57.660;12.000;2022-08-11T07:48:50;4.05;;;2.20;;
44366;SDS011;30086;57.660;12.000;2022-08-11T07:51:35;6.20;;;2.47;;
44366;SDS011;30086;57.660;12.000;2022-08-11T07:54:20;4.53;;;2.05;;
44366;SDS011;30086;57.660;12.000;2022-08-11T07:56:46;5.80;;;2.00;;
44366;SDS011;30086;57.660;12.000;2022-08-11T07:59:12;5.35;;;1.67;;
44366;SDS011;30086;57.660;12.000;2022-08-11T08:01:57;4.25;;;2.13;;
44366;SDS011;30086;57.660;12.000;2022-08-11T08:04:42;5.32;;;2.22;;
44366;SDS011;30086;57.660;12.000;2022-08-11T08:07:29;10.35;;;2.63;;
44366;SDS011;30086;57.660;12.000;2022-08-11T08:10:14;3.42;;;1.95;;
44366;SDS011;30086;57.660;12.000;2022-08-11T08:13:00;5.97;;;2.30;;
44366;SDS011;30086;57.660;12.000;2022-08-11T08:15:45;3.75;;;2.00;;
44366;SDS011;30086;57.660;12.000;2022-08-11T08:18:32;5.25;;;2.13;;
44366;SDS011;30086;57.660;12.000;2022-08-11T08:20:59;5.55;;;2.22;;
44366;SDS011;30086;57.660;12.000;2022-08-11T08:23:36;5.50;;;2.20;;
44366;SDS011;30086;57.660;12.000;2022-08-11T08:26:04;7.13;;;2.35;;
44366;SDS011;30086;57.660;12.000;2022-08-11T08:28:51;4.22;;;2.10;;
44366;SDS011;30086;57.660;12.000;2022-08-11T08:31:17;8.23;;;2.97;;
44366;SDS011;30086;57.660;12.000;2022-08-11T08:33:43;4.70;;;2.03;;
44366;SDS011;30086;57.660;12.000;2022-08-11T08:36:10;6.05;;;2.45;;
44366;SDS011;30086;57.660;12.000;2022-08-11T08:38:38;4.38;;;2.58;;
44366;SDS011;30086;57.660;12.000;2022-08-11T08:41:04;6.43;;;2.22;;
44366;SDS011;30086;57.660;12.000;2022-08-11T08:43:30;9.02;;;2.55;;
44366;SDS011;30086;57.660;12.000;2022-08-11T08:45:57;5.43;;;2.03;;
44366;SDS011;30086;57.660;12.000;2022-08-11T08:48:24;4.25;;;1.85;;
44366;SDS011;30086;57.660;12.000;2022-08-11T08:51:01;4.97;;;2.22;;
44366;SDS011;30086;57.660;12.000;2022-08-11T08:53:48;3.50;;;1.90;;
44366;SDS011;30086;57.660;12.000;2022-08-11T08:56:15;5.55;;;1.85;;
44366;SDS011;30086;57.660;12.000;2022-08-11T08:58:42;4.30;;;1.58;;
44366;SDS011;30086;57.660;12.000;2022-08-11T09:01:10;5.22;;;1.73;;
44366;SDS011;30086;57.660;12.000;2022-08-11T09:03:38;4.55;;;2.10;;
44366;SDS011;30086;57.660;12.000;2022-08-11T09:06:04;6.00;;;1.83;;
44366;SDS011;30086;57.660;12.000;2022-08-11T09:08:31;4.72;;;1.90;;
44366;SDS011;30086;57.660;12.000;2022-08-11T09:10:59;5.68;;;2.13;;
44366;SDS011;30086;57.660;12.000;2022-08-11T09:13:44;3.95;;;1.67;;
44366;SDS011;30086;57.660;12.000;2022-08-11T09:16:11;5.15;;;2.20;;
44366;SDS011;30086;57.660;12.000;2022-08-11T09:18:38;3.67;;;1.58;;
44366;SDS011;30086;57.660;12.000;2022-08-11T09:21:04;2.90;;;1.77;;
44366;SDS011;30086;57.660;12.000;2022-08-11T09:23:31;3.10;;;2.05;;
44366;SDS011;30086;57.660;12.000;2022-08-11T09:26:16;9.80;;;1.90;;
44366;SDS011;30086;57.660;12.000;2022-08-11T09:29:01;5.63;;;1.73;;
44366;SDS011;30086;57.660;12.000;2022-08-11T09:31:31;5.68;;;1.40;;
44366;SDS011;30086;57.660;12.000;2022-08-11T09:33:58;5.80;;;1.90;;
44366;SDS011;30086;57.660;12.000;2022-08-11T09:36:24;3.35;;;1.55;;
44366;SDS011;30086;57.660;12.000;2022-08-11T09:39:09;4.45;;;1.80;;
44366;SDS011;30086;57.660;12.000;2022-08-11T09:41:54;4.20;;;1.67;;
44366;SDS011;30086;57.660;12.000;2022-08-11T09:44:20;2.10;;;1.48;;
44366;SDS011;30086;57.660;12.000;2022-08-11T09:47:05;2.92;;;1.60;;
44366;SDS011;30086;57.660;12.000;2022-08-11T09:49:39;6.55;;;1.65;;
44366;SDS011;30086;57.660;12.000;2022-08-11T09:52:05;7.82;;;1.90;;
44366;SDS011;30086;57.660;12.000;2022-08-11T09:54:33;3.70;;;1.65;;
44366;SDS011;30086;57.660;12.000;2022-08-11T09:56:59;3.20;;;1.48;;
44366;SDS011;30086;57.660;12.000;2022-08-11T09:59:44;7.85;;;2.03;;
44366;SDS011;30086;57.660;12.000;2022-08-11T10:02:12;5.55;;;1.95;;
44366;SDS011;30086;57.660;12.000;2022-08-11T10:07:04;4.13;;;1.33;;
44366;SDS011;30086;57.660;12.000;2022-08-11T10:12:05;2.67;;;1.27;;
44366;SDS011;30086;57.660;12.000;2022-08-11T10:14:31;3.85;;;1.45;;
44366;SDS011;30086;57.660;12.000;2022-08-11T10:17:17;2.75;;;1.45;;
44366;SDS011;30086;57.660;12.000;2022-08-11T10:19:45;4.30;;;1.50;;
44366;SDS011;30086;57.660;12.000;2022-08-11T10:22:12;2.15;;;1.25;;
44366;SDS011;30086;57.660;12.000;2022-08-11T10:24:57;3.78;;;1.17;;
44366;SDS011;30086;57.660;12.000;2022-08-11T10:27:42;2.17;;;1.20;;
44366;SDS011;30086;57.660;12.000;2022-08-11T10:30:09;4.63;;;1.10;;
44366;SDS011;30086;57.660;12.000;2022-08-11T10:32:55;2.40;;;1.15;;
44366;SDS011;30086;57.660;12.000;2022-08-11T10:35:40;3.13;;;1.33;;
44366;SDS011;30086;57.660;12.000;2022-08-11T10:38:07;3.28;;;1.20;;
44366;SDS011;30086;57.660;12.000;2022-08-11T10:40:33;2.40;;;1.30;;
44366;SDS011;30086;57.660;12.000;2022-08-11T10:42:59;4.95;;;1.35;;
44366;SDS011;30086;57.660;12.000;2022-08-11T10:45:26;4.40;;;1.50;;
44366;SDS011;30086;57.660;12.000;2022-08-11T10:48:12;1.88;;;1.20;;
44366;SDS011;30086;57.660;12.000;2022-08-11T10:50:39;1.83;;;1.20;;
44366;SDS011;30086;57.660;12.000;2022-08-11T10:53:24;2.35;;;1.17;;
44366;SDS011;30086;57.660;12.000;2022-08-11T10:56:09;2.70;;;1.05;;
44366;SDS011;30086;57.660;12.000;2022-08-11T10:58:54;4.20;;;1.20;;
44366;SDS011;30086;57.660;12.000;2022-08-11T11:01:22;5.72;;;1.27;;
44366;SDS011;30086;57.660;12.000;2022-08-11T11:03:48;4.47;;;1.30;;
44366;SDS011;30086;57.660;12.000;2022-08-11T11:08:50;4.07;;;1.30;;
44366;SDS011;30086;57.660;12.000;2022-08-11T11:11:17;4.15;;;1.13;;
44366;SDS011;30086;57.660;12.000;2022-08-11T11:13:45;1.30;;;1.00;;
44366;SDS011;30086;57.660;12.000;2022-08-11T11:16:31;3.85;;;1.48;;
44366;SDS011;30086;57.660;12.000;2022-08-11T11:19:17;3.72;;;1.20;;
44366;SDS011;30086;57.660;12.000;2022-08-11T11:21:45;4.03;;;1.20;;
44366;SDS011;30086;57.660;12.000;2022-08-11T11:24:15;2.42;;;1.35;;
44366;SDS011;30086;57.660;12.000;2022-08-11T11:27:02;1.70;;;1.33;;
44366;SDS011;30086;57.660;12.000;2022-08-11T11:35:04;2.78;;;1.20;;
44366;SDS011;30086;57.660;12.000;2022-08-11T11:37:34;2.67;;;1.10;;
44366;SDS011;30086;57.660;12.000;2022-08-11T11:40:05;1.65;;;1.30;;
44366;SDS011;30086;57.660;12.000;2022-08-11T11:42:34;3.63;;;1.40;;
44366;SDS011;30086;57.660;12.000;2022-08-11T11:45:00;2.60;;;1.27;;
44366;SDS011;30086;57.660;12.000;2022-08-11T11:47:27;2.53;;;1.10;;
44366;SDS011;30086;57.660;12.000;2022-08-11T11:49:54;1.58;;;1.20;;
44366;SDS011;30086;57.660;12.000;2022-08-11T11:52:21;3.60;;;1.23;;
44366;SDS011;30086;57.660;12.000;2022-08-11T11:54:47;2.83;;;1.55;;
44366;SDS011;30086;57.660;12.000;2022-08-11T11:57:15;1.92;;;1.08;;
44366;SDS011;30086;57.660;12.000;2022-08-11T12:00:00;3.70;;;1.67;;
44366;SDS011;30086;57.660;12.000;2022-08-11T12:02:45;1.98;;;1.25;;
44366;SDS011;30086;57.660;12.000;2022-08-11T12:05:11;1.25;;;1.10;;
44366;SDS011;30086;57.660;12.000;2022-08-11T12:07:38;2.47;;;1.20;;
44366;SDS011;30086;57.660;12.000;2022-08-11T12:10:24;5.63;;;1.77;;
44366;SDS011;30086;57.660;12.000;2022-08-11T12:12:50;2.15;;;1.25;;
44366;SDS011;30086;57.660;12.000;2022-08-11T12:15:35;0.77;;;0.75;;
44366;SDS011;30086;57.660;12.000;2022-08-11T12:18:01;2.38;;;1.67;;
44366;SDS011;30086;57.660;12.000;2022-08-11T12:20:28;1.40;;;1.10;;
44366;SDS011;30086;57.660;12.000;2022-08-11T12:22:54;2.40;;;1.00;;
44366;SDS011;30086;57.660;12.000;2022-08-11T12:25:47;1.83;;;1.20;;
44366;SDS011;30086;57.660;12.000;2022-08-11T12:28:32;2.40;;;1.08;;
44366;SDS011;30086;57.660;12.000;2022-08-11T12:30:58;9.30;;;1.30;;
44366;SDS011;30086;57.660;12.000;2022-08-11T12:33:24;4.63;;;1.00;;
44366;SDS011;30086;57.660;12.000;2022-08-11T12:35:55;2.65;;;1.10;;
44366;SDS011;30086;57.660;12.000;2022-08-11T12:38:22;3.85;;;1.30;;
44366;SDS011;30086;57.660;12.000;2022-08-11T12:40:49;8.32;;;1.20;;
44366;SDS011;30086;57.660;12.000;2022-08-11T12:43:34;3.33;;;1.13;;
44366;SDS011;30086;57.660;12.000;2022-08-11T12:46:21;2.28;;;1.30;;
44366;SDS011;30086;57.660;12.000;2022-08-11T12:48:50;2.47;;;1.05;;
44366;SDS011;30086;57.660;12.000;2022-08-11T12:51:37;4.15;;;0.90;;
44366;SDS011;30086;57.660;12.000;2022-08-11T12:57:05;1.17;;;0.77;;
44366;SDS011;30086;57.660;12.000;2022-08-11T12:59:50;1.25;;;0.70;;
44366;SDS011;30086;57.660;12.000;2022-08-11T13:02:35;1.85;;;1.10;;
44366;SDS011;30086;57.660;12.000;2022-08-11T13:05:20;1.55;;;0.85;;
44366;SDS011;30086;57.660;12.000;2022-08-11T13:07:48;3.53;;;1.50;;
44366;SDS011;30086;57.660;12.000;2022-08-11T13:10:15;1.30;;;0.93;;
44366;SDS011;30086;57.660;12.000;2022-08-11T13:13:06;1.30;;;0.80;;
44366;SDS011;30086;57.660;12.000;2022-08-11T13:15:32;2.58;;;1.15;;
44366;SDS011;30086;57.660;12.000;2022-08-11T13:18:00;1.63;;;0.70;;
44366;SDS011;30086;57.660;12.000;2022-08-11T13:20:27;0.93;;;0.80;;
44366;SDS011;30086;57.660;12.000;2022-08-11T13:22:54;2.22;;;0.88;;
44366;SDS011;30086;57.660;12.000;2022-08-11T13:25:21;1.60;;;0.90;;
44366;SDS011;30086;57.660;12.000;2022-08-11T13:27:48;1.75;;;0.90;;
44366;SDS011;30086;57.660;12.000;2022-08-11T13:30:16;2.55;;;1.05;;
44366;SDS011;30086;57.660;12.000;2022-08-11T13:33:01;1.15;;;1.02;;
44366;SDS011;30086;57.660;12.000;2022-08-11T13:35:28;0.98;;;0.88;;
44366;SDS011;30086;57.660;12.000;2022-08-11T13:37:55;0.70;;;0.70;;
44366;SDS011;30086;57.660;12.000;2022-08-11T13:40:21;2.85;;;1.05;;
44366;SDS011;30086;57.660;12.000;2022-08-11T13:42:49;0.95;;;0.77;;
44366;SDS011;30086;57.660;12.000;2022-08-11T13:45:16;2.65;;;0.95;;
44366;SDS011;30086;57.660;12.000;2022-08-11T13:47:42;1.25;;;0.90;;
44366;SDS011;30086;57.660;12.000;2022-08-11T13:50:09;1.30;;;0.80;;
44366;SDS011;30086;57.660;12.000;2022-08-11T13:52:37;1.95;;;0.90;;
44366;SDS011;30086;57.660;12.000;2022-08-11T13:55:04;0.90;;;0.80;;
44366;SDS011;30086;57.660;12.000;2022-08-11T13:57:31;1.70;;;1.00;;
44366;SDS011;30086;57.660;12.000;2022-08-11T13:59:58;2.28;;;1.10;;
44366;SDS011;30086;57.660;12.000;2022-08-11T14:02:43;2.20;;;1.00;;
44366;SDS011;30086;57.660;12.000;2022-08-11T14:05:13;1.45;;;1.10;;
44366;SDS011;30086;57.660;12.000;2022-08-11T14:07:45;1.85;;;1.10;;
44366;SDS011;30086;57.660;12.000;2022-08-11T14:10:11;2.20;;;1.00;;
44366;SDS011;30086;57.660;12.000;2022-08-11T14:12:39;0.80;;;0.80;;
44366;SDS011;30086;57.660;12.000;2022-08-11T14:15:30;0.90;;;0.80;;
44366;SDS011;30086;57.660;12.000;2022-08-11T14:18:01;2.05;;;1.00;;
44366;SDS011;30086;57.660;12.000;2022-08-11T14:20:30;2.45;;;0.80;;
44366;SDS011;30086;57.660;12.000;2022-08-11T14:23:15;3.05;;;1.20;;
44366;SDS011;30086;57.660;12.000;2022-08-11T14:25:42;1.58;;;0.90;;
44366;SDS011;30086;57.660;12.000;2022-08-11T14:28:29;4.45;;;1.30;;
44366;SDS011;30086;57.660;12.000;2022-08-11T14:30:56;0.88;;;0.80;;
44366;SDS011;30086;57.660;12.000;2022-08-11T14:33:22;3.45;;;0.77;;
44366;SDS011;30086;57.660;12.000;2022-08-11T14:35:48;1.40;;;0.82;;
44366;SDS011;30086;57.660;12.000;2022-08-11T14:38:15;2.10;;;1.00;;
44366;SDS011;30086;57.660;12.000;2022-08-11T14:40:42;1.70;;;0.65;;
44366;SDS011;30086;57.660;12.000;2022-08-11T14:43:27;1.80;;;1.00;;
44366;SDS011;30086;57.660;12.000;2022-08-11T14:46:12;1.23;;;0.80;;
44366;SDS011;30086;57.660;12.000;2022-08-11T14:48:57;3.42;;;1.33;;
44366;SDS011;30086;57.660;12.000;2022-08-11T14:51:23;1.35;;;0.95;;
44366;SDS011;30086;57.660;12.000;2022-08-11T14:53:51;2.97;;;1.10;;
44366;SDS011;30086;57.660;12.000;2022-08-11T14:56:37;1.83;;;1.17;;
44366;SDS011;30086;57.660;12.000;2022-08-11T14:59:04;1.35;;;1.00;;
44366;SDS011;30086;57.660;12.000;2022-08-11T15:01:31;3.40;;;1.15;;
44366;SDS011;30086;57.660;12.000;2022-08-11T15:04:16;0.95;;;0.88;;
44366;SDS011;30086;57.660;12.000;2022-08-11T15:06:42;1.50;;;1.08;;
44366;SDS011;30086;57.660;12.000;2022-08-11T15:09:08;4.30;;;1.15;;
44366;SDS011;30086;57.660;12.000;2022-08-11T15:11:34;2.47;;;1.50;;
44366;SDS011;30086;57.660;12.000;2022-08-11T15:14:19;1.77;;;1.05;;
44366;SDS011;30086;57.660;12.000;2022-08-11T15:17:04;1.95;;;1.38;;
44366;SDS011;30086;57.660;12.000;2022-08-11T15:19:34;2.05;;;1.38;;
44366;SDS011;30086;57.660;12.000;2022-08-11T15:22:01;5.72;;;1.60;;
44366;SDS011;30086;57.660;12.000;2022-08-11T15:24:45;4.38;;;1.65;;
44366;SDS011;30086;57.660;12.000;2022-08-11T15:27:12;3.13;;;1.40;;
44366;SDS011;30086;57.660;12.000;2022-08-11T15:29:58;2.40;;;1.42;;
44366;SDS011;30086;57.660;12.000;2022-08-11T15:32:44;3.72;;;1.40;;
44366;SDS011;30086;57.660;12.000;2022-08-11T15:35:29;3.30;;;1.23;;
44366;SDS011;30086;57.660;12.000;2022-08-11T15:38:14;3.17;;;1.67;;
44366;SDS011;30086;57.660;12.000;2022-08-11T15:40:42;2.28;;;1.20;;
44366;SDS011;30086;57.660;12.000;2022-08-11T15:43:28;4.65;;;1.52;;
44366;SDS011;30086;57.660;12.000;2022-08-11T15:49:00;1.63;;;1.10;;
44366;SDS011;30086;57.660;12.000;2022-08-11T15:51:36;1.90;;;1.20;;
44366;SDS011;30086;57.660;12.000;2022-08-11T15:54:12;3.25;;;1.20;;
44366;SDS011;30086;57.660;12.000;2022-08-11T15:56:43;1.88;;;1.55;;
44366;SDS011;30086;57.660;12.000;2022-08-11T15:59:10;3.78;;;1.50;;
44366;SDS011;30086;57.660;12.000;2022-08-11T16:01:56;3.15;;;1.50;;
44366;SDS011;30086;57.660;12.000;2022-08-11T16:04:41;2.05;;;1.42;;
44366;SDS011;30086;57.660;12.000;2022-08-11T16:07:10;2.05;;;1.30;;
44366;SDS011;30086;57.660;12.000;2022-08-11T16:09:37;3.17;;;1.33;;
44366;SDS011;30086;57.660;12.000;2022-08-11T16:12:05;1.90;;;1.20;;
44366;SDS011;30086;57.660;12.000;2022-08-11T16:14:34;3.28;;;1.17;;
44366;SDS011;30086;57.660;12.000;2022-08-11T16:17:19;2.28;;;1.55;;
44366;SDS011;30086;57.660;12.000;2022-08-11T16:19:47;3.42;;;1.40;;
44366;SDS011;30086;57.660;12.000;2022-08-11T16:22:15;2.72;;;1.45;;
44366;SDS011;30086;57.660;12.000;2022-08-11T16:24:45;1.42;;;1.10;;
44366;SDS011;30086;57.660;12.000;2022-08-11T16:27:12;4.50;;;1.20;;
44366;SDS011;30086;57.660;12.000;2022-08-11T16:29:43;1.50;;;1.40;;
44366;SDS011;30086;57.660;12.000;2022-08-11T16:32:12;1.85;;;1.60;;
44366;SDS011;30086;57.660;12.000;2022-08-11T16:34:41;2.20;;;1.48;;
44366;SDS011;30086;57.660;12.000;2022-08-11T16:37:35;1.92;;;1.40;;
44366;SDS011;30086;57.660;12.000;2022-08-11T16:40:20;3.53;;;1.60;;
44366;SDS011;30086;57.660;12.000;2022-08-11T16:42:47;3.13;;;1.65;;
44366;SDS011;30086;57.660;12.000;2022-08-11T16:45:32;2.75;;;1.30;;
44366;SDS011;30086;57.660;12.000;2022-08-11T16:48:18;2.85;;;1.45;;
44366;SDS011;30086;57.660;12.000;2022-08-11T16:50:45;2.25;;;1.25;;
44366;SDS011;30086;57.660;12.000;2022-08-11T16:53:12;3.60;;;1.60;;
44366;SDS011;30086;57.660;12.000;2022-08-11T16:55:39;2.55;;;1.80;;
44366;SDS011;30086;57.660;12.000;2022-08-11T16:58:05;3.22;;;1.60;;
44366;SDS011;30086;57.660;12.000;2022-08-11T17:00:50;2.35;;;1.40;;
44366;SDS011;30086;57.660;12.000;2022-08-11T17:03:17;2.25;;;1.35;;
44366;SDS011;30086;57.660;12.000;2022-08-11T17:06:03;4.10;;;1.48;;
44366;SDS011;30086;57.660;12.000;2022-08-11T17:08:50;2.72;;;1.38;;
44366;SDS011;30086;57.660;12.000;2022-08-11T17:11:39;2.38;;;1.33;;
44366;SDS011;30086;57.660;12.000;2022-08-11T17:14:28;3.65;;;1.20;;
44366;SDS011;30086;57.660;12.000;2022-08-11T17:16:56;4.20;;;1.90;;
44366;SDS011;30086;57.660;12.000;2022-08-11T17:19:24;3.15;;;1.25;;
44366;SDS011;30086;57.660;12.000;2022-08-11T17:21:52;4.88;;;2.08;;
44366;SDS011;30086;57.660;12.000;2022-08-11T17:24:39;2.08;;;1.70;;
44366;SDS011;30086;57.660;12.000;2022-08-11T17:27:06;3.65;;;1.65;;
44366;SDS011;30086;57.660;12.000;2022-08-11T17:32:00;2.00;;;1.40;;
44366;SDS011;30086;57.660;12.000;2022-08-11T17:34:45;6.78;;;1.75;;
44366;SDS011;30086;57.660;12.000;2022-08-11T17:37:31;2.25;;;1.10;;
44366;SDS011;30086;57.660;12.000;2022-08-11T17:39:59;5.35;;;1.75;;
44366;SDS011;30086;57.660;12.000;2022-08-11T17:42:26;2.55;;;1.05;;
44366;SDS011;30086;57.660;12.000;2022-08-11T17:45:11;1.15;;;0.90;;
44366;SDS011;30086;57.660;12.000;2022-08-11T17:47:58;1.63;;;1.10;;
44366;SDS011;30086;57.660;12.000;2022-08-11T17:50:44;1.83;;;1.10;;
44366;SDS011;30086;57.660;12.000;2022-08-11T17:53:10;1.80;;;0.90;;
44366;SDS011;30086;57.660;12.000;2022-08-11T17:55:56;3.67;;;1.25;;
44366;SDS011;30086;57.660;12.000;2022-08-11T17:58:41;2.00;;;0.98;;
44366;SDS011;30086;57.660;12.000;2022-08-11T18:01:26;2.22;;;1.20;;
44366;SDS011;30086;57.660;12.000;2022-08-11T18:03:57;2.83;;;0.90;;
44366;SDS011;30086;57.660;12.000;2022-08-11T18:06:25;1.80;;;0.90;;
44366;SDS011;30086;57.660;12.000;2022-08-11T18:08:53;3.15;;;1.30;;
44366;SDS011;30086;57.660;12.000;2022-08-11T18:11:39;1.23;;;0.80;;
44366;SDS011;30086;57.660;12.000;2022-08-11T18:14:24;1.40;;;0.93;;
44366;SDS011;30086;57.660;12.000;2022-08-11T18:17:10;1.25;;;1.15;;
44366;SDS011;30086;57.660;12.000;2022-08-11T18:19:54;1.70;;;1.27;;
44366;SDS011;30086;57.660;12.000;2022-08-11T18:22:39;2.03;;;1.10;;
44366;SDS011;30086;57.660;12.000;2022-08-11T18:25:26;1.95;;;1.40;;
44366;SDS011;30086;57.660;12.000;2022-08-11T18:28:14;7.15;;;2.30;;
44366;SDS011;30086;57.660;12.000;2022-08-11T18:31:00;4.95;;;1.83;;
44366;SDS011;30086;57.660;12.000;2022-08-11T18:33:50;5.55;;;1.70;;
44366;SDS011;30086;57.660;12.000;2022-08-11T18:36:37;6.57;;;2.40;;
44366;SDS011;30086;57.660;12.000;2022-08-11T18:39:22;2.72;;;1.33;;
44366;SDS011;30086;57.660;12.000;2022-08-11T18:42:13;2.85;;;1.60;;
44366;SDS011;30086;57.660;12.000;2022-08-11T18:45:00;4.05;;;1.60;;